Ottawa Gatineau Airport
CYND : rendu visible

Aérodrome :











RETROUVEZ-NOUS SUR...

 
LOGIN :

S'inscrire | Disclaimer

   EN    FR    IT 

 









Légende :    VFR   VFR Marginal   IFR   IFR Intensif   IFR Très Intensif
Visi : 
Plafond : 
>= 8 km
>= 3000ft
5 à 8 km
1000 à 3000 ft
1500m à 5 km
500 à 1000 ft
800 à 1500m
200 à 500 ft
< 800m
< 200 ft
Symboles :   Orages  Brouillard  Fortes neiges  Fortes précipitations  Vent > 20 kt






- Altitude de l'aérodrome : 211 ft
- Code IATA : YND


CYND - Ottawa Gatineau

DERNIER METAR :
  • 190200Z 08015G22KT 1SM -SN DRSN VV008 M15/M17 A2971 RMK SN8 /S02/ LAST STFD OBS/NEXT 191200 UTC PRESFR SLP067

METARs EXPIRÉS :
  • 190100Z 08017G23KT 1SM -SN DRSN VV008 M15/M17 A2977 RMK SN8 /S01/ PRESFR SLP089
  • 190016Z 08019G25KT 1/2SM SN DRSN VV005 M15/M17 A2981 RMK SN8 SLP103
  • 190000Z 08019G25KT 1 1/2SM -SN DRSN OVC012 M15/M18 A2982 RMK SN5SC3 /S03/ PRESFR SLP107
  • 182300Z 08016G23KT 1 1/2SM -SN DRSN BKN010 OVC041 M15/M18 A2991 RMK SN4SC3SC1 SLP135

Prévision TAF périmée.



MET'MAP, la Météo Aéronautique d'un coup d'oeil ! - Copyright ORBIFLY Décembre 2007 - Disclaimer

ORBIFLY MET'MAP TEAM :

Programmation & Développement : Alexandra Zaïnal
Sur une idée originale de : Baudouin d'Aumeries
Assistance à la programmation : Marc-Olivier Méhu
Soutien technique & logistique : Manuel Goepfert

Contact : metmap@orbifly.com




SOURCES & CREDITS :

   NOAA       Earth
Advisory